Have a Safe July 4th! 

Flight Track Log - Related Links

Times and Time Zones

All times are in EDT time to prevent confusion due to time zone crossing. See the N885WT flight status page for this flight to view local times or setup timezone preferences in your user account.

Time Position Orientation Groundspeed Altitude Reporting Facility
EDT Latitude Longitude Course Direction KTS MPH feet Rate Location/Type
Thu 08:50:28 PM 33.1333 -117.3000 253° West 165 190 1,800  Level Southern California TRACON
Thu 08:51:29 PM 33.1167 -117.3667 253° West 211 243 4,300 2,337 Climbing Southern California TRACON
Thu 08:52:03 PM 33.1094 -117.4075 258° West 234 269 5,500 3,063 Climbing Los Angeles Center
Thu 08:53:05 PM 33.0956 -117.4975 260° West 269 310 9,200 2,855 Climbing Los Angeles Center
Thu 08:54:07 PM 33.0842 -117.5997 262° West 306 352 11,400 2,419 Climbing Los Angeles Center
Thu 08:55:09 PM 33.0883 -117.7206 272° West 364 419 14,200 2,952 Climbing Los Angeles Center
Thu 08:56:11 PM 33.1769 -117.8361 313° West 391 450 17,500 2,806 Climbing Los Angeles Center
Thu 08:57:13 PM 33.2536 -117.9369 312° West 404 465 20,000 2,516 Climbing Los Angeles Center
Thu 08:58:15 PM 33.3331 -118.0419 312° West 420 483 22,700 2,419 Climbing Los Angeles Center
Thu 08:59:17 PM 33.4147 -118.1500 312° West 433 498 25,000 2,129 Climbing Los Angeles Center
Thu 09:00:19 PM 33.5028 -118.2622 313° West 453 521 27,100 2,032 Climbing Los Angeles Center
Thu 09:01:21 PM 33.5922 -118.3803 312° West 467 537 29,200 1,935 Climbing Los Angeles Center
Thu 09:02:23 PM 33.6900 -118.5036 314° West 496 571 31,100 2,129 Climbing Los Angeles Center
Thu 09:03:25 PM 33.7881 -118.6222 315° West 494 568 33,600 2,758 Climbing Los Angeles Center
Thu 09:04:27 PM 33.9025 -118.7611 315° West 484 557 36,800 2,806 Climbing Los Angeles Center
Thu 09:05:29 PM 33.9975 -118.8744 315° West 480 552 39,400 1,548 Climbing Los Angeles Center
Thu 09:06:31 PM 34.0925 -118.9853 316° Northwest 476 548 40,000 290 Climbing Los Angeles Center
Thu 09:07:33 PM 34.1908 -119.0989 316° Northwest 487 560 40,000  Level Los Angeles Center
Thu 09:08:35 PM 34.2886 -119.2133 316° Northwest 489 563 40,000  Level Los Angeles Center
Thu 09:09:37 PM 34.3864 -119.3269 316° Northwest 488 562 40,000  Level Los Angeles Center
Thu 09:10:39 PM 34.4850 -119.4414 316° Northwest 490 564 40,000  Level Los Angeles Center
Thu 09:11:41 PM 34.6011 -119.5769 316° Northwest 486 559 40,000  Level Los Angeles Center
Thu 09:12:43 PM 34.6881 -119.6758 317° Northwest 485 558 40,000  Level Los Angeles Center
Thu 09:13:45 PM 34.8056 -119.8142 316° Northwest 489 563 40,000  Level Los Angeles Center
Thu 09:14:47 PM 34.9036 -119.9311 316° Northwest 492 566 40,000  Level Los Angeles Center
Thu 09:15:49 PM 35.0017 -120.0478 316° Northwest 493 567 40,000  Level Los Angeles Center
Thu 09:16:50 PM 35.1006 -120.1628 316° Northwest 498 573 40,000  Level Los Angeles Center
Thu 09:17:52 PM 35.1978 -120.2783 316° Northwest 497 572 40,000  Level Los Angeles Center
Thu 09:18:54 PM 35.2942 -120.3961 315° West 499 574 40,000  Level Los Angeles Center
Thu 09:19:56 PM 35.4203 -120.5283 320° Northwest 513 590 40,000  Level Los Angeles Center
Thu 09:20:58 PM 35.5317 -120.6256 325° Northwest 500 575 40,000 -383 Level Los Angeles Center
Thu 09:22:17 PM 35.6836 -120.7550 325° Northwest 498 573 39,100 -1,574 Descending Oakland Center
Thu 09:23:19 PM 35.7956 -120.8508 325° Northwest 493 567 36,300 -2,732 Descending Oakland Center
Thu 09:24:20 PM 35.9111 -120.9483 326° Northwest 499 574 33,500 -2,780 Descending Oakland Center
Thu 09:25:22 PM 36.0278 -121.0492 325° Northwest 507 583 30,600 -2,829 Descending Oakland Center
Thu 09:26:23 PM 36.1453 -121.1500 325° Northwest 511 588 27,700 -2,732 Descending Oakland Center
Thu 09:27:25 PM 36.2575 -121.2475 325° Northwest 491 565 25,000 -2,855 Descending Oakland Center
Thu 09:28:27 PM 36.3867 -121.3592 325° Northwest 471 542 21,800 -2,927 Descending Oakland Center
Thu 09:29:28 PM 36.4903 -121.4489 325° Northwest 455 524 19,000 -2,732 Descending Oakland Center
Thu 09:30:30 PM 36.6067 -121.4875 345° North 432 497 16,200 -2,390 Descending Oakland Center
Thu 09:31:31 PM 36.7194 -121.5056 353° North 406 467 14,100 -1,805 Descending Oakland Center
Thu 09:32:33 PM 36.8172 -121.5242 351° North 356 410 12,500 -1,707 Descending Oakland Center
Thu 09:33:34 PM 36.9086 -121.5664 340° North 324 373 10,600 -1,721 Descending Oakland Center
Thu 09:34:35 PM 36.9789 -121.6200 329° Northwest 300 345 9,000 -1,512 Descending Oakland Center
Thu 09:35:37 PM 37.0486 -121.6694 330° Northwest 291 335 7,500 -1,594 Descending Oakland Center
Thu 09:36:43 PM 37.1333 -121.7167 336° Northwest 280 322 5,600 -1,366 Descending Northern Cal TRACON
Thu 09:37:40 PM 37.1842 -121.7536 330° Northwest 272 313 4,700 -1,017 Descending Oakland Center
Thu 09:38:41 PM 37.2406 -121.7956 329° Northwest 254 292 3,600 -1,073 Descending Oakland Center
Thu 09:39:43 PM 37.2756 -121.8381 316° Northwest 204 235 2,500 -1,073 Descending Oakland Center
Thu 09:40:44 PM 37.3053 -121.8700 319° Northwest 167 192 1,400 -976 Descending Oakland Center
Thu 09:41:46 PM 37.3358 -121.9008 321° Northwest 136 157 500 9,073 Descending Oakland Center
Thu 09:42:47 PM 37.3583 -121.9267 318° Northwest 121 139 20,000 19,180 Climbing Oakland Center
Thu 09:44:00 PM 37.3500 -121.9167 North  Level FlightAware Approximate

Login

Don't have an account? Register now (free) for customized features, flight alerts, and more!